Time;durP1;ratioP1;P1;durP2;ratioP2;P2;SDS_P1;SDS_P2;PMS_P1;PMS_P2;Temp;Humidity;BMP_temperature;BMP_pressure;BME280_temperature;BME280_humidity;BME280_pressure;Samples;Min_cycle;Max_cycle;Signal;HPM_P1;HPM_P2
2023/10/10 00:00:57;;;;;;;3.88;2.70;;;3.50;97.80;;;;;;5029319;28;20118;-94
2023/10/10 00:03:30;;;;;;;3.63;2.50;;;3.50;98.00;;;;;;5032829;28;20090;-93
2023/10/10 00:05:58;;;;;;;2.35;2.03;;;3.50;98.10;;;;;;5002318;28;20010;-93
2023/10/10 00:08:33;;;;;;;;;;;3.50;97.90;;;;;;4993379;28;20085;-91
2023/10/10 00:11:10;;;;;;;2.63;2.30;;;3.50;97.80;;;;;;4990973;28;20264;-92
2023/10/10 00:13:52;;;;;;;5.23;1.77;;;3.50;97.90;;;;;;5009724;28;20037;-92
2023/10/10 00:16:38;;;;;;;4.15;2.88;;;3.40;97.80;;;;;;5003737;28;20133;-88
2023/10/10 00:21:54;;;;;;;1.77;1.52;;;3.30;97.80;;;;;;5001273;28;20042;-92
2023/10/10 00:24:31;;;;;;;3.08;2.20;;;3.30;97.80;;;;;;5060998;28;20033;-93
2023/10/10 00:27:12;;;;;;;4.72;2.95;;;3.20;97.80;;;;;;5045034;28;20017;-92
2023/10/10 00:29:42;;;;;;;3.58;2.40;;;3.30;97.90;;;;;;5076015;28;20024;-91
2023/10/10 00:32:26;;;;;;;3.58;3.00;;;3.30;98.00;;;;;;5026103;28;20052;-91
2023/10/10 00:34:55;;;;;;;3.78;3.03;;;3.30;98.20;;;;;;5054688;28;20029;-93
2023/10/10 00:37:34;;;;;;;4.80;2.78;;;3.30;98.10;;;;;;5042175;28;20036;-88
2023/10/10 00:40:08;;;;;;;3.53;2.47;;;3.30;98.10;;;;;;5059355;28;20033;-90
2023/10/10 00:42:37;;;;;;;3.42;2.45;;;3.30;98.20;;;;;;5053837;28;20052;-90
2023/10/10 00:45:04;;;;;;;4.10;2.38;;;3.40;98.20;;;;;;5063944;28;20021;-92
2023/10/10 00:47:38;;;;;;;3.13;2.75;;;3.40;98.10;;;;;;5056075;28;20009;-92
2023/10/10 00:50:08;;;;;;;5.78;3.33;;;3.40;97.90;;;;;;5043861;28;20371;-92
2023/10/10 00:52:37;;;;;;;2.92;2.58;;;3.30;97.80;;;;;;5043848;28;20033;-92
2023/10/10 00:55:04;;;;;;;3.38;2.78;;;3.30;97.90;;;;;;5043895;28;20601;-90
2023/10/10 00:57:36;;;;;;;3.20;2.70;;;3.20;98.10;;;;;;5065360;28;20017;-91
2023/10/10 01:00:14;;;;;;;4.15;2.92;;;3.30;98.30;;;;;;5048801;28;20025;-91
2023/10/10 01:02:39;;;;;;;;;;;3.30;98.40;;;;;;5060696;28;20067;-91
2023/10/10 01:05:12;;;;;;;4.90;2.55;;;3.30;98.20;;;;;;5042955;28;19955;-91
2023/10/10 01:07:47;;;;;;;3.40;2.88;;;3.30;98.20;;;;;;5066238;28;20028;-89
2023/10/10 01:10:16;;;;;;;4.63;3.10;;;3.30;98.30;;;;;;5049349;28;20552;-92
2023/10/10 01:12:46;;;;;;;4.28;3.17;;;3.30;98.40;;;;;;5042226;28;20051;-90
2023/10/10 01:15:25;;;;;;;4.80;3.67;;;3.40;98.50;;;;;;5037550;28;20035;-91
2023/10/10 01:17:51;;;;;;;3.13;2.25;;;3.40;98.50;;;;;;5036851;28;20045;-89
2023/10/10 01:20:18;;;;;;;3.80;3.10;;;3.50;98.50;;;;;;5069683;28;20057;-96
2023/10/10 01:22:56;;;;;;;4.25;2.90;;;3.50;98.60;;;;;;5065009;28;20033;-92
2023/10/10 01:28:03;;;;;;;4.93;2.50;;;3.50;98.50;;;;;;5075634;28;20077;-94
2023/10/10 01:33:22;;;;;;;3.67;2.65;;;3.50;98.40;;;;;;5039941;28;20402;-95
2023/10/10 01:35:52;;;;;;;3.05;2.30;;;3.60;98.40;;;;;;5045847;28;20112;-95
2023/10/10 01:38:27;;;;;;;3.50;2.70;;;3.50;98.30;;;;;;5028823;28;20130;-95
2023/10/10 01:40:57;;;;;;;3.88;2.83;;;3.50;98.10;;;;;;5041163;28;20577;-92
2023/10/10 01:43:24;;;;;;;4.05;3.47;;;3.50;98.20;;;;;;5060999;28;20056;-92
2023/10/10 01:46:08;;;;;;;4.45;3.47;;;3.50;98.20;;;;;;5057797;28;20017;-93
2023/10/10 01:48:43;;;;;;;3.40;2.40;;;3.50;98.40;;;;;;5029324;28;20030;-93
2023/10/10 01:51:10;;;;;;;3.33;2.53;;;3.50;98.20;;;;;;5007513;28;20180;-91
2023/10/10 01:53:40;;;;;;;3.92;2.63;;;3.50;97.90;;;;;;5011452;28;20492;-94
2023/10/10 01:56:13;;;;;;;2.53;2.13;;;3.40;97.90;;;;;;5018350;28;20033;-93
2023/10/10 01:58:43;;;;;;;3.80;2.28;;;3.40;97.90;;;;;;5013379;28;20026;-93
2023/10/10 02:01:19;;;;;;;2.63;2.03;;;3.40;97.90;;;;;;5024749;28;20029;-92
2023/10/10 02:03:48;;;;;;;1.95;1.80;;;3.40;97.80;;;;;;5016395;28;20038;-92
2023/10/10 02:06:25;;;;;;;3.00;2.08;;;3.40;97.40;;;;;;5013693;28;20033;-92
2023/10/10 02:09:27;;;;;;;1.85;1.60;;;3.30;97.20;;;;;;5011616;28;20030;-93
2023/10/10 02:12:04;;;;;;;2.20;1.70;;;3.40;97.20;;;;;;5030335;28;20090;-94
2023/10/10 02:14:30;;;;;;;2.35;1.63;;;3.30;97.20;;;;;;5058980;28;20037;-92
2023/10/10 02:17:06;;;;;;;4.57;2.30;;;3.30;97.20;;;;;;5038429;28;20041;-92
2023/10/10 02:19:38;;;;;;;3.47;2.47;;;3.30;97.40;;;;;;5051542;28;20025;-90
2023/10/10 02:22:32;;;;;;;3.00;2.58;;;3.40;97.50;;;;;;5067464;28;20633;-89
2023/10/10 02:25:37;;;;;;;5.13;2.85;;;3.40;97.70;;;;;;5042920;28;20164;-89
2023/10/10 02:29:16;;;;;;;4.38;2.97;;;3.50;97.90;;;;;;5056076;28;20491;-90
2023/10/10 02:30:52;;;;;;;4.93;3.50;;;3.50;97.90;;;;;;5032964;28;20041;-93
2023/10/10 02:35:55;;;;;;;3.90;2.67;;;3.50;98.10;;;;;;5051102;28;20022;-91
2023/10/10 02:38:40;;;;;;;5.47;2.90;;;3.50;98.30;;;;;;5055934;28;20032;-91
2023/10/10 02:44:02;;;;;;;4.10;3.35;;;3.60;98.30;;;;;;5058512;28;20394;-90
2023/10/10 02:46:35;;;;;;;4.55;3.15;;;3.60;98.30;;;;;;5062117;28;20385;-89
2023/10/10 02:51:58;;;;;;;4.63;2.88;;;3.60;98.40;;;;;;5056292;28;20117;-88
2023/10/10 02:54:33;;;;;;;3.88;3.03;;;3.50;98.40;;;;;;5068865;28;20029;-89
2023/10/10 02:59:50;;;;;;;5.95;3.45;;;3.50;98.50;;;;;;5065914;28;20132;-86
2023/10/10 03:02:28;;;;;;;4.93;3.00;;;3.50;98.50;;;;;;5056560;28;20045;-87
2023/10/10 03:07:29;;;;;;;6.20;3.25;;;3.50;98.70;;;;;;5060162;28;20016;-89
2023/10/10 03:12:37;;;;;;;4.32;3.20;;;3.50;98.80;;;;;;5044153;28;20033;-88
2023/10/10 03:31:08;;;;;;;4.55;3.50;;;3.50;98.80;;;;;;5053355;28;20039;-88
2023/10/10 03:33:43;;;;;;;4.35;3.60;;;3.50;98.80;;;;;;5030904;28;20068;-88
2023/10/10 03:36:30;;;;;;;6.10;3.33;;;3.50;98.80;;;;;;5059883;28;20091;-88
2023/10/10 05:23:35;;;;;;;4.57;3.00;;;3.50;98.00;;;;;;5066547;28;20052;-85
2023/10/10 05:26:02;;;;;;;3.30;2.65;;;3.50;98.20;;;;;;5056495;28;20375;-85
2023/10/10 05:28:32;;;;;;;2.80;2.42;;;3.30;98.20;;;;;;5036885;28;20474;-84
2023/10/10 05:31:02;;;;;;;4.03;2.83;;;3.20;98.20;;;;;;5053881;28;20064;-87
2023/10/10 05:33:30;;;;;;;3.45;2.58;;;3.00;98.70;;;;;;5058256;28;20044;-84
2023/10/10 05:36:06;;;;;;;8.43;2.97;;;2.90;99.10;;;;;;5058280;28;20027;-88
2023/10/10 05:38:45;;;;;;;4.05;3.15;;;2.90;99.40;;;;;;5035938;28;20041;-86
2023/10/10 05:41:12;;;;;;;3.63;3.13;;;2.90;99.70;;;;;;5051642;28;20112;-84
2023/10/10 05:43:39;;;;;;;4.57;3.70;;;2.90;99.90;;;;;;5034242;28;20385;-86
2023/10/10 05:46:05;;;;;;;4.53;3.53;;;2.90;99.90;;;;;;5051914;28;20104;-83
2023/10/10 05:48:32;;;;;;;3.85;3.10;;;2.80;99.90;;;;;;5052670;28;20025;-87
2023/10/10 05:50:59;;;;;;;2.95;2.53;;;2.70;99.90;;;;;;5048900;28;20437;-84
2023/10/10 05:53:26;;;;;;;4.13;2.78;;;2.60;99.90;;;;;;5055964;28;20048;-86
2023/10/10 05:55:58;;;;;;;4.25;3.28;;;2.60;99.90;;;;;;5037680;28;20449;-86
2023/10/10 05:58:25;;;;;;;4.13;3.17;;;2.60;99.90;;;;;;5049579;28;20028;-85
2023/10/10 06:00:53;;;;;;;4.32;2.67;;;2.70;99.90;;;;;;5040931;28;20028;-87
2023/10/10 06:03:21;;;;;;;3.75;2.63;;;2.70;99.90;;;;;;5034606;28;20101;-86
2023/10/10 06:05:49;;;;;;;3.13;2.10;;;2.80;99.90;;;;;;5053038;28;20021;-87
2023/10/10 06:08:16;;;;;;;2.95;2.50;;;2.80;99.90;;;;;;5058391;28;20402;-84
2023/10/10 06:10:42;;;;;;;3.28;2.38;;;2.80;99.90;;;;;;5051964;28;20497;-85
2023/10/10 06:13:11;;;;;;;3.70;3.00;;;2.80;99.90;;;;;;5052746;28;20040;-85
2023/10/10 06:15:37;;;;;;;3.55;2.58;;;2.90;99.90;;;;;;5052750;28;20762;-87
2023/10/10 06:18:13;;;;;;;5.15;2.80;;;2.80;99.60;;;;;;5052524;28;20163;-88
2023/10/10 06:20:43;;;;;;;2.85;2.38;;;2.80;99.60;;;;;;5034336;28;20025;-86
2023/10/10 06:23:17;;;;;;;3.97;2.78;;;2.80;99.60;;;;;;5034213;28;20167;-87
2023/10/10 06:25:43;;;;;;;4.50;3.03;;;2.80;99.50;;;;;;5054280;28;20040;-88
2023/10/10 06:28:26;;;;;;;3.33;3.00;;;2.80;99.50;;;;;;5034157;28;20116;-87
2023/10/10 06:30:54;;;;;;;3.53;2.83;;;2.80;99.40;;;;;;5051829;28;20060;-87
2023/10/10 06:33:27;;;;;;;2.78;2.28;;;2.80;99.60;;;;;;5052113;28;20123;-88
2023/10/10 06:38:59;;;;;;;2.75;2.30;;;2.90;99.60;;;;;;5054337;28;20036;-85
2023/10/10 06:41:35;;;;;;;3.80;2.83;;;3.00;99.30;;;;;;5056068;28;20094;-84
2023/10/10 06:44:01;;;;;;;3.00;2.53;;;2.90;99.20;;;;;;5038744;28;20398;-85
2023/10/10 06:46:32;;;;;;;3.55;2.60;;;2.90;99.30;;;;;;5055400;28;20071;-86
2023/10/10 06:49:07;;;;;;;6.40;2.75;;;3.00;99.40;;;;;;5055841;28;20025;-84
2023/10/10 06:51:39;;;;;;;3.60;3.00;;;3.00;99.40;;;;;;5055577;28;20021;-85
2023/10/10 06:54:09;;;;;;;5.63;3.15;;;2.90;99.40;;;;;;5057825;28;20028;-85
2023/10/10 06:56:44;;;;;;;4.05;2.70;;;2.90;99.50;;;;;;5053571;28;20013;-85
2023/10/10 06:59:16;;;;;;;3.35;2.50;;;2.90;99.90;;;;;;5059757;28;20032;-87
2023/10/10 07:01:45;;;;;;;4.38;3.38;;;2.90;99.90;;;;;;5057469;28;20532;-87
2023/10/10 07:04:13;;;;;;;3.85;2.70;;;3.00;99.90;;;;;;5063342;28;20028;-89
2023/10/10 07:06:43;;;;;;;;;;;3.00;99.90;;;;;;5048974;28;20433;-92
2023/10/10 07:09:27;;;;;;;4.20;2.85;;;3.00;99.90;;;;;;5045833;28;19913;-91
2023/10/10 07:11:55;;;;;;;4.82;2.20;;;2.90;99.90;;;;;;5050199;28;20115;-89
2023/10/10 07:14:25;;;;;;;4.10;2.95;;;2.90;99.90;;;;;;5027002;28;20032;-91
2023/10/10 07:16:54;;;;;;;4.10;2.97;;;2.80;99.90;;;;;;5038737;28;20045;-90
2023/10/10 07:19:23;;;;;;;6.45;4.03;;;2.80;99.90;;;;;;5036852;28;20390;-92
2023/10/10 07:21:51;;;;;;;6.35;3.67;;;2.90;99.90;;;;;;5039296;28;20159;-90
2023/10/10 07:24:18;;;;;;;3.75;3.03;;;2.90;99.90;;;;;;5042649;28;20478;-89
2023/10/10 07:26:59;;;;;;;3.80;2.73;;;2.90;99.90;;;;;;5048344;28;20037;-87
2023/10/10 07:29:30;;;;;;;4.63;2.28;;;2.90;99.90;;;;;;5057852;28;20021;-91
2023/10/10 07:32:15;;;;;;;6.50;3.28;;;2.90;99.90;;;;;;5069241;28;20009;-91
2023/10/10 07:34:50;;;;;;;3.83;3.17;;;2.90;99.90;;;;;;5042196;28;20440;-91
2023/10/10 07:37:17;;;;;;;3.72;2.80;;;2.90;99.90;;;;;;5054120;28;20017;-91
2023/10/10 07:39:55;;;;;;;4.72;3.45;;;3.00;99.90;;;;;;5040953;28;20025;-87
2023/10/10 07:42:29;;;;;;;4.63;2.60;;;3.00;99.90;;;;;;5061330;28;20025;-87
2023/10/10 07:44:56;;;;;;;3.50;3.13;;;3.00;99.90;;;;;;5057218;28;20483;-88
2023/10/10 07:47:27;;;;;;;3.83;3.03;;;3.00;99.80;;;;;;5069516;28;20421;-87
2023/10/10 07:50:08;;;;;;;4.95;3.58;;;2.90;99.70;;;;;;5046858;28;20063;-90
2023/10/10 07:52:35;;;;;;;4.60;3.25;;;2.90;99.70;;;;;;5056392;28;20036;-84
2023/10/10 07:55:04;;;;;;;4.75;3.22;;;3.00;99.70;;;;;;5036694;28;20482;-82
2023/10/10 07:57:55;;;;;;;5.05;3.60;;;3.10;99.80;;;;;;5054239;28;20036;-83
2023/10/10 08:00:17;;;;;;;4.97;3.38;;;3.20;99.90;;;;;;5047829;28;20478;-83
2023/10/10 08:02:49;;;;;;;4.63;3.53;;;3.30;99.80;;;;;;5036479;28;20391;-84
2023/10/10 08:05:19;;;;;;;4.72;2.88;;;3.40;99.50;;;;;;5054528;28;20013;-83
2023/10/10 08:07:46;;;;;;;4.47;3.47;;;3.40;99.10;;;;;;5054877;28;20514;-85
2023/10/10 08:10:13;;;;;;;5.53;2.83;;;3.50;99.20;;;;;;5056419;28;20043;-83
2023/10/10 08:12:43;;;;;;;3.45;3.15;;;3.50;99.00;;;;;;5061759;28;20043;-84
2023/10/10 08:15:25;;;;;;;4.82;3.40;;;3.60;99.10;;;;;;5055319;28;20025;-85
2023/10/10 08:17:54;;;;;;;4.20;3.60;;;3.60;98.50;;;;;;5053143;28;20075;-83
2023/10/10 08:20:35;;;;;;;3.03;2.40;;;3.60;98.10;;;;;;5053710;28;20102;-83
2023/10/10 08:23:03;;;;;;;6.43;4.10;;;3.60;98.20;;;;;;5053444;28;20474;-85
2023/10/10 08:25:29;;;;;;;3.78;3.38;;;3.70;98.30;;;;;;5035280;28;20036;-82
2023/10/10 08:27:55;;;;;;;3.25;2.75;;;3.70;97.90;;;;;;5053890;28;20028;-85
2023/10/10 08:30:26;;;;;;;4.20;2.70;;;3.70;97.80;;;;;;5046895;28;20025;-83
2023/10/10 08:32:58;;;;;;;3.03;2.42;;;3.80;97.70;;;;;;5061096;28;20092;-82
2023/10/10 08:35:29;;;;;;;3.75;3.38;;;3.90;97.80;;;;;;5035428;28;20032;-82
2023/10/10 08:37:56;;;;;;;4.05;3.00;;;3.90;97.50;;;;;;5052634;28;20163;-83
2023/10/10 08:40:23;;;;;;;4.47;3.13;;;4.00;97.40;;;;;;5034495;28;20493;-83
2023/10/10 08:42:50;;;;;;;3.87;3.00;;;4.00;97.00;;;;;;5052927;28;20029;-84
2023/10/10 08:45:24;;;;;;;6.35;2.85;;;4.00;97.20;;;;;;5034507;28;20129;-82
2023/10/10 08:48:00;;;;;;;5.00;2.55;;;4.10;97.10;;;;;;5052491;28;20021;-83
2023/10/10 08:50:33;;;;;;;5.90;2.40;;;4.20;96.80;;;;;;5052538;28;20017;-82
2023/10/10 08:52:59;;;;;;;4.45;2.55;;;4.20;96.90;;;;;;5034398;28;20087;-84
2023/10/10 08:55:27;;;;;;;4.18;2.60;;;4.30;96.70;;;;;;5034869;28;20027;-81
2023/10/10 08:57:55;;;;;;;5.30;2.88;;;4.30;96.50;;;;;;5051750;28;20577;-84
2023/10/10 09:00:27;;;;;;;;;;;4.40;96.40;;;;;;5035004;28;20087;-86
2023/10/10 09:02:56;;;;;;;2.95;2.30;;;4.40;96.20;;;;;;5052487;28;19909;-82
2023/10/10 09:05:24;;;;;;;5.32;2.55;;;4.40;96.10;;;;;;5051682;28;20052;-82
2023/10/10 09:07:54;;;;;;;5.53;3.40;;;4.30;96.10;;;;;;5034826;28;20462;-81
2023/10/10 09:10:29;;;;;;;6.25;2.95;;;4.30;96.10;;;;;;5035315;28;20036;-84
2023/10/10 09:12:58;;;;;;;3.88;2.22;;;4.30;96.20;;;;;;5034812;28;20102;-83
2023/10/10 09:15:30;;;;;;;4.15;2.83;;;4.40;96.20;;;;;;5052379;28;20104;-83
2023/10/10 09:18:12;;;;;;;3.63;2.70;;;4.40;96.00;;;;;;5052072;28;20045;-82
2023/10/10 09:20:45;;;;;;;5.47;2.28;;;4.40;96.20;;;;;;5052158;28;20029;-82
2023/10/10 09:23:21;;;;;;;4.13;2.83;;;4.40;96.10;;;;;;5052200;28;20021;-82
2023/10/10 09:25:49;;;;;;;4.15;2.58;;;4.30;96.00;;;;;;5052387;28;20024;-82
2023/10/10 09:28:17;;;;;;;6.85;2.65;;;4.20;96.00;;;;;;5052658;28;20017;-80
2023/10/10 09:30:58;;;;;;;6.47;3.03;;;4.20;96.00;;;;;;5034032;28;20339;-83
2023/10/10 09:35:59;;;;;;;3.20;2.75;;;4.40;96.00;;;;;;5069238;28;20053;-82
2023/10/10 09:38:36;;;;;;;3.20;2.42;;;4.40;95.80;;;;;;5064682;28;20414;-82
2023/10/10 09:41:26;;;;;;;4.47;2.88;;;4.40;95.70;;;;;;5053012;28;20061;-82
2023/10/10 10:09:36;;;;;;;2.95;2.30;;;4.80;93.60;;;;;;5053774;28;20242;-84
2023/10/10 10:12:11;;;;;;;4.30;2.25;;;4.80;93.80;;;;;;5034761;28;20032;-84
2023/10/10 10:14:55;;;;;;;2.70;2.13;;;4.80;93.50;;;;;;5055138;28;20025;-82
2023/10/10 10:17:53;;;;;;;4.35;2.03;;;4.90;93.50;;;;;;5055549;28;20048;-84
2023/10/10 10:23:28;;;;;;;2.88;2.20;;;5.00;93.00;;;;;;5037790;28;20402;-81
2023/10/10 10:26:21;;;;;;;2.80;2.00;;;5.00;92.60;;;;;;5054232;28;20438;-82
2023/10/10 10:28:56;;;;;;;3.55;2.50;;;4.90;92.70;;;;;;5055593;28;20385;-83
2023/10/10 10:31:29;;;;;;;2.67;2.15;;;4.90;92.80;;;;;;5056456;28;20390;-84
2023/10/10 10:34:07;;;;;;;3.75;2.72;;;4.90;92.50;;;;;;5056147;28;20025;-84
2023/10/10 10:36:43;;;;;;;4.72;2.78;;;4.90;92.70;;;;;;5038544;28;20103;-85
2023/10/10 10:39:34;;;;;;;3.95;2.30;;;4.90;92.70;;;;;;5055889;28;20067;-83
2023/10/10 10:42:01;;;;;;;2.85;2.10;;;4.90;92.80;;;;;;5055465;28;20021;-84
2023/10/10 10:47:45;;;;;;;5.95;2.33;;;5.10;92.40;;;;;;5055278;28;20481;-82
2023/10/10 10:50:30;;;;;;;4.97;2.47;;;5.20;92.60;;;;;;5039027;28;20024;-83
2023/10/10 10:53:05;;;;;;;5.80;2.63;;;5.40;92.20;;;;;;5052373;28;20486;-83
2023/10/10 10:55:31;;;;;;;3.80;2.25;;;5.40;92.00;;;;;;5054992;28;20044;-80
2023/10/10 10:58:20;;;;;;;4.30;2.17;;;5.30;91.70;;;;;;5055044;28;20029;-82
2023/10/10 11:03:38;;;;;;;4.15;2.05;;;5.40;91.90;;;;;;5054824;28;20021;-83
2023/10/10 11:06:09;;;;;;;3.30;2.00;;;5.50;91.50;;;;;;5054883;28;20032;-82
2023/10/10 11:09:39;;;;;;;4.20;2.50;;;5.60;91.40;;;;;;5054547;28;20021;-81
2023/10/10 11:16:45;;;;;;;10.18;3.17;;;5.60;91.10;;;;;;5055992;28;20087;-85
2023/10/10 11:21:49;;;;;;;3.38;1.85;;;5.40;91.10;;;;;;5058127;28;20036;-80
2023/10/10 11:24:25;;;;;;;3.42;2.00;;;5.40;90.80;;;;;;5062973;28;20009;-82
2023/10/10 11:29:29;;;;;;;5.80;2.53;;;5.60;90.20;;;;;;5054519;28;20569;-84
2023/10/10 11:32:23;;;;;;;11.38;2.75;;;5.70;90.10;;;;;;5054862;28;20104;-87
2023/10/10 11:34:49;;;;;;;5.90;2.55;;;5.80;89.80;;;;;;5043218;28;20428;-84
2023/10/10 11:37:23;;;;;;;2.67;1.55;;;5.80;90.10;;;;;;5056146;28;20449;-84
2023/10/10 11:39:59;;;;;;;4.68;2.03;;;5.90;90.00;;;;;;5058081;28;20033;-85
2023/10/10 11:42:35;;;;;;;3.92;2.13;;;5.80;90.00;;;;;;5054543;28;20020;-84
2023/10/10 11:45:05;;;;;;;2.88;2.05;;;5.70;89.60;;;;;;5054687;28;20021;-86
2023/10/10 11:47:44;;;;;;;2.25;1.63;;;5.80;89.80;;;;;;5055195;28;20063;-84
2023/10/10 11:50:12;;;;;;;5.43;2.40;;;5.80;90.00;;;;;;5025531;28;23407;-86
2023/10/10 11:52:57;;;;;;;;;;;5.90;90.00;;;;;;5054562;28;20053;-81
2023/10/10 11:55:27;;;;;;;3.00;1.80;;;5.90;90.00;;;;;;5054449;28;20334;-83
2023/10/10 11:57:58;;;;;;;6.05;3.40;;;5.70;89.80;;;;;;5057080;28;20024;-84
2023/10/10 12:00:42;;;;;;;3.85;2.10;;;5.60;90.20;;;;;;5056176;28;20025;-83
2023/10/10 12:03:12;;;;;;;3.78;2.25;;;5.30;90.60;;;;;;5054093;28;20059;-86
2023/10/10 12:05:47;;;;;;;6.80;3.13;;;5.00;91.70;;;;;;5036267;28;20018;-84
2023/10/10 12:08:15;;;;;;;7.78;2.67;;;4.70;92.40;;;;;;5054604;28;20036;-82
2023/10/10 12:10:52;;;;;;;7.72;2.90;;;4.40;93.00;;;;;;5053496;28;20013;-82
2023/10/10 12:13:44;;;;;;;4.93;3.47;;;4.30;93.30;;;;;;5053056;28;20402;-82
2023/10/10 12:16:07;;;;;;;5.32;2.45;;;4.20;93.40;;;;;;5050892;28;20786;-81
2023/10/10 12:18:35;;;;;;;4.50;2.08;;;4.20;93.30;;;;;;5053020;28;20036;-84
2023/10/10 12:21:02;;;;;;;2.63;2.08;;;4.40;93.30;;;;;;5053071;28;20154;-84
2023/10/10 12:23:31;;;;;;;1.63;1.38;;;4.40;93.20;;;;;;5035067;28;20509;-81
2023/10/10 12:26:04;;;;;;;4.50;2.20;;;4.40;93.40;;;;;;5053502;28;20508;-83
2023/10/10 12:28:30;;;;;;;3.45;1.60;;;4.20;93.90;;;;;;5044765;28;20474;-82
2023/10/10 12:30:56;;;;;;;3.25;1.13;;;4.00;94.20;;;;;;5053266;28;20025;-84
2023/10/10 12:33:25;;;;;;;2.03;1.42;;;3.90;94.50;;;;;;5034938;28;20037;-86
2023/10/10 12:35:51;;;;;;;3.55;1.38;;;3.90;94.50;;;;;;5055398;28;20059;-85
2023/10/10 12:38:21;;;;;;;2.35;1.42;;;3.90;94.40;;;;;;5038366;28;20056;-85
2023/10/10 12:40:51;;;;;;;3.03;1.38;;;3.90;94.50;;;;;;5053116;28;20021;-85
2023/10/10 12:43:23;;;;;;;2.65;1.90;;;4.00;94.50;;;;;;5055483;28;20016;-83
2023/10/10 12:45:56;;;;;;;2.35;1.63;;;4.20;94.20;;;;;;5036387;28;20067;-84
2023/10/10 12:48:22;;;;;;;3.72;1.70;;;4.30;94.20;;;;;;5053967;28;20057;-83
2023/10/10 12:50:50;;;;;;;4.95;2.40;;;4.40;94.00;;;;;;5053619;28;20052;-84
2023/10/10 12:53:19;;;;;;;2.90;2.10;;;4.50;94.10;;;;;;5035300;28;20063;-83
2023/10/10 12:56:01;;;;;;;3.72;2.05;;;4.50;93.80;;;;;;5052860;28;20104;-86
2023/10/10 12:58:28;;;;;;;4.72;2.17;;;4.40;93.80;;;;;;5052456;28;20013;-84
2023/10/10 13:00:56;;;;;;;3.97;1.95;;;4.40;94.00;;;;;;5037563;28;20517;-85
2023/10/10 13:03:28;;;;;;;3.58;1.85;;;4.40;94.10;;;;;;5053442;28;20032;-83
2023/10/10 13:05:58;;;;;;;3.15;2.25;;;4.40;94.00;;;;;;5053534;28;20032;-84
2023/10/10 13:08:38;;;;;;;6.32;2.83;;;4.40;94.10;;;;;;5037640;28;20490;-85
2023/10/10 13:11:17;;;;;;;2.65;2.10;;;4.40;94.30;;;;;;5037376;28;20029;-83
2023/10/10 13:13:51;;;;;;;4.45;2.67;;;4.50;94.20;;;;;;5068390;28;20343;-85
2023/10/10 13:16:24;;;;;;;4.22;2.05;;;4.40;94.10;;;;;;5055951;28;20068;-83
2023/10/10 13:18:54;;;;;;;4.95;2.10;;;4.40;94.10;;;;;;5053486;28;20108;-84
2023/10/10 13:21:20;;;;;;;3.28;2.17;;;4.30;94.20;;;;;;5061443;28;20005;-84
2023/10/10 13:23:51;;;;;;;3.08;2.00;;;4.30;94.40;;;;;;5044359;28;20040;-88
2023/10/10 13:26:17;;;;;;;5.55;3.15;;;4.20;94.50;;;;;;5049263;28;20039;-86
2023/10/10 13:28:46;;;;;;;4.40;2.93;;;4.20;94.80;;;;;;5066044;28;20385;-86
2023/10/10 13:31:19;;;;;;;5.10;2.35;;;4.20;95.10;;;;;;5059183;28;20266;-89
2023/10/10 13:33:45;;;;;;;3.60;2.00;;;4.20;95.00;;;;;;5053730;28;20032;-87
2023/10/10 13:36:15;;;;;;;3.72;2.28;;;4.20;95.00;;;;;;5033415;28;20431;-81
2023/10/10 13:38:49;;;;;;;2.58;2.05;;;4.20;94.60;;;;;;5033969;28;20032;-83
2023/10/10 13:41:22;;;;;;;6.82;2.63;;;4.20;94.50;;;;;;5052737;28;20024;-84
2023/10/10 13:43:51;;;;;;;4.97;2.42;;;4.20;94.30;;;;;;5052729;28;20104;-84
2023/10/10 13:46:19;;;;;;;3.38;1.70;;;4.20;94.20;;;;;;5051935;28;20421;-87
2023/10/10 13:48:48;;;;;;;3.72;2.25;;;4.20;94.00;;;;;;5051081;28;20092;-86
2023/10/10 13:51:15;;;;;;;6.75;2.25;;;4.10;94.00;;;;;;5052320;28;20043;-82
2023/10/10 13:53:43;;;;;;;3.47;1.77;;;4.10;93.70;;;;;;5051940;28;20074;-84
2023/10/10 13:56:16;;;;;;;4.97;1.98;;;4.20;93.60;;;;;;5046796;28;20052;-82
2023/10/10 13:58:49;;;;;;;5.05;1.83;;;4.20;93.50;;;;;;5051613;28;20116;-82
2023/10/10 14:01:36;;;;;;;2.45;1.95;;;4.20;93.40;;;;;;5051735;28;20467;-82
2023/10/10 14:06:47;;;;;;;2.22;1.67;;;4.20;93.30;;;;;;5051607;28;20032;-83
2023/10/10 14:09:23;;;;;;;1.75;1.35;;;4.20;92.90;;;;;;5052289;28;20017;-85
2023/10/10 14:11:51;;;;;;;2.70;1.80;;;4.20;92.80;;;;;;5047491;28;20029;-83
2023/10/10 14:14:18;;;;;;;6.95;2.17;;;4.20;92.80;;;;;;5038511;28;20071;-83
2023/10/10 14:16:44;;;;;;;3.42;1.88;;;4.20;92.80;;;;;;5032953;28;20414;-81
2023/10/10 14:19:10;;;;;;;2.40;1.60;;;4.20;92.70;;;;;;5029759;28;20025;-85
2023/10/10 14:21:38;;;;;;;3.40;2.03;;;4.20;92.70;;;;;;5033885;28;20021;-85
2023/10/10 14:24:06;;;;;;;5.32;2.83;;;4.10;92.60;;;;;;5050065;28;20528;-84
2023/10/10 14:26:36;;;;;;;4.43;2.10;;;4.10;92.80;;;;;;5052005;28;20453;-81
2023/10/10 14:29:06;;;;;;;2.20;1.73;;;4.10;92.90;;;;;;5051517;28;20386;-84
2023/10/10 14:31:34;;;;;;;1.60;1.40;;;4.00;92.70;;;;;;5051735;28;20531;-82
2023/10/10 14:34:04;;;;;;;1.70;1.38;;;4.00;92.50;;;;;;5051134;28;20079;-84
2023/10/10 14:36:31;;;;;;;3.47;1.83;;;3.90;92.40;;;;;;5033014;28;20049;-86
2023/10/10 14:38:57;;;;;;;4.07;1.23;;;3.90;92.50;;;;;;5033848;28;20029;-81
2023/10/10 14:41:30;;;;;;;3.55;2.00;;;3.80;92.70;;;;;;5052684;28;20083;-84
2023/10/10 14:44:00;;;;;;;4.13;1.52;;;3.70;92.70;;;;;;5046453;28;20115;-85
2023/10/10 14:46:31;;;;;;;2.20;1.75;;;3.70;92.90;;;;;;5040631;28;20021;-84
2023/10/10 14:49:01;;;;;;;3.22;1.73;;;3.70;93.00;;;;;;5068827;28;20021;-86
2023/10/10 14:51:33;;;;;;;3.15;1.75;;;3.70;93.10;;;;;;5051933;28;20465;-84
2023/10/10 14:54:23;;;;;;;3.25;1.92;;;3.70;93.30;;;;;;5033200;28;20417;-81
2023/10/10 14:56:51;;;;;;;5.72;1.75;;;3.70;93.30;;;;;;5039126;28;20031;-82
2023/10/10 14:59:20;;;;;;;2.53;1.75;;;3.70;93.40;;;;;;5064985;28;20035;-84
2023/10/10 15:01:50;;;;;;;2.75;1.75;;;3.70;93.40;;;;;;5074575;28;20017;-85
2023/10/10 15:04:18;;;;;;;5.78;2.25;;;3.70;93.50;;;;;;5056160;28;20092;-86
2023/10/10 15:06:45;;;;;;;3.13;2.40;;;3.70;93.60;;;;;;5055004;28;20500;-85
2023/10/10 15:09:14;;;;;;;3.92;1.90;;;3.70;93.70;;;;;;5024954;28;20021;-85
2023/10/10 15:11:45;;;;;;;3.40;1.83;;;3.70;93.70;;;;;;5037561;28;20025;-85
2023/10/10 15:14:11;;;;;;;3.20;1.90;;;3.70;93.70;;;;;;5055242;28;20406;-87
2023/10/10 15:16:38;;;;;;;2.00;1.17;;;3.70;93.70;;;;;;5036695;28;20133;-85
2023/10/10 15:19:07;;;;;;;3.42;2.22;;;3.70;93.70;;;;;;5054153;28;20029;-83
2023/10/10 15:21:38;;;;;;;2.90;2.15;;;3.60;93.70;;;;;;5036488;28;20413;-83
2023/10/10 15:24:11;;;;;;;5.30;4.20;;;3.60;93.90;;;;;;5037549;28;20075;-83
2023/10/10 15:26:38;;;;;;;5.07;2.08;;;3.60;94.00;;;;;;5054320;28;20101;-82
2023/10/10 15:29:04;;;;;;;4.60;1.73;;;3.60;94.00;;;;;;5053859;28;20703;-82
2023/10/10 15:31:31;;;;;;;3.08;1.77;;;3.60;94.00;;;;;;5054175;28;20029;-81
2023/10/10 15:33:57;;;;;;;3.60;1.83;;;3.60;94.10;;;;;;5036154;28;20025;-84
2023/10/10 15:36:30;;;;;;;3.03;2.03;;;3.50;94.10;;;;;;5055413;28;20029;-86
2023/10/10 15:39:10;;;;;;;2.90;1.60;;;3.60;94.30;;;;;;5039554;28;20371;-87
2023/10/10 15:41:37;;;;;;;3.88;2.08;;;3.60;94.10;;;;;;5025828;28;20029;-85
2023/10/10 15:44:03;;;;;;;;;;;3.60;93.90;;;;;;5056680;28;20017;-87
2023/10/10 15:46:37;;;;;;;4.30;2.20;;;3.60;93.90;;;;;;5041018;28;20362;-86
2023/10/10 15:49:09;;;;;;;3.40;2.40;;;3.50;94.00;;;;;;5034363;28;20025;-87
2023/10/10 15:51:38;;;;;;;3.10;2.05;;;3.40;94.20;;;;;;5050193;28;20025;-86
2023/10/10 15:54:05;;;;;;;4.03;2.47;;;3.30;94.50;;;;;;5045704;28;20124;-87
2023/10/10 15:56:31;;;;;;;4.55;2.33;;;3.20;94.50;;;;;;5053036;28;20466;-85
2023/10/10 15:58:57;;;;;;;7.72;2.40;;;3.10;94.70;;;;;;5051274;28;20029;-83
2023/10/10 16:01:28;;;;;;;3.88;2.30;;;3.10;95.10;;;;;;5056106;28;20494;-86
2023/10/10 16:04:00;;;;;;;6.28;2.35;;;3.10;94.90;;;;;;5037058;28;20503;-84
2023/10/10 16:06:27;;;;;;;3.88;2.28;;;3.10;95.00;;;;;;5052016;28;20021;-85
2023/10/10 16:08:56;;;;;;;3.83;2.53;;;3.00;95.10;;;;;;5037004;28;20029;-85
2023/10/10 16:11:31;;;;;;;3.05;2.38;;;3.00;95.10;;;;;;5052737;28;20041;-86
2023/10/10 16:13:58;;;;;;;4.95;2.70;;;3.00;95.30;;;;;;5053703;28;20037;-83
2023/10/10 16:16:24;;;;;;;3.60;2.50;;;2.90;95.40;;;;;;5035647;28;20041;-85
2023/10/10 16:18:50;;;;;;;8.18;5.55;;;3.00;95.50;;;;;;5055580;28;20777;-84
2023/10/10 16:21:17;;;;;;;3.50;2.90;;;3.10;95.50;;;;;;5066316;28;20021;-84
2023/10/10 16:23:44;;;;;;;5.70;2.90;;;3.10;95.50;;;;;;5066442;28;20029;-83
2023/10/10 16:26:11;;;;;;;5.03;2.95;;;3.20;95.40;;;;;;5054974;28;20489;-84
2023/10/10 16:28:37;;;;;;;;;;;3.20;95.30;;;;;;5035691;28;20047;-83
2023/10/10 16:31:10;;;;;;;4.10;3.20;;;3.20;95.20;;;;;;5053633;28;19908;-86
2023/10/10 16:33:40;;;;;;;3.83;2.42;;;3.10;95.40;;;;;;5035870;28;20538;-87
2023/10/10 16:36:09;;;;;;;4.38;2.55;;;3.10;95.50;;;;;;5053277;28;20016;-84
2023/10/10 16:38:36;;;;;;;5.47;2.25;;;3.00;95.60;;;;;;5034776;28;20107;-82
2023/10/10 16:41:04;;;;;;;7.40;2.58;;;3.00;95.90;;;;;;5052920;28;20108;-81